createdAt,value
2018-11-28T00:02:08.296Z,10.53
2018-11-28T00:04:41.922Z,11.37
2018-11-28T00:07:30.454Z,11.33
2018-11-28T00:10:06.205Z,12.10
2018-11-28T00:12:40.330Z,11.93
2018-11-28T00:15:14.593Z,12.87
2018-11-28T00:17:48.206Z,11.77
2018-11-28T00:20:22.617Z,12.90
2018-11-28T00:22:56.215Z,12.17
2018-11-28T00:25:29.873Z,11.73
2018-11-28T00:28:03.363Z,11.33
2018-11-28T00:30:36.874Z,11.73
2018-11-28T00:33:10.261Z,11.47
2018-11-28T00:35:43.914Z,11.37
2018-11-28T00:38:17.574Z,11.73
2018-11-28T00:40:51.207Z,11.10
2018-11-28T00:43:24.680Z,11.23
2018-11-28T00:45:58.435Z,11.47
2018-11-28T00:48:32.158Z,10.87
2018-11-28T00:51:05.697Z,10.47
2018-11-28T00:53:39.382Z,11.53
2018-11-28T00:56:12.781Z,12.10
2018-11-28T00:58:46.132Z,11.73
2018-11-28T01:01:19.562Z,10.63
2018-11-28T01:03:53.090Z,10.23
2018-11-28T01:06:26.833Z,10.60
2018-11-28T01:09:00.535Z,11.20
2018-11-28T01:11:34.726Z,12.37
2018-11-28T01:14:08.310Z,11.10
2018-11-28T01:16:42.056Z,10.67
2018-11-28T01:19:15.478Z,10.33
2018-11-28T01:21:49.051Z,10.77
2018-11-28T01:24:22.748Z,10.37
2018-11-28T01:26:56.346Z,9.77
2018-11-28T01:29:29.969Z,10.40
2018-11-28T01:32:03.654Z,9.73
2018-11-28T01:34:37.355Z,9.47
2018-11-28T01:37:10.810Z,9.77
2018-11-28T01:39:44.194Z,10.33
2018-11-28T01:42:17.775Z,9.73
2018-11-28T01:44:51.346Z,9.87
2018-11-28T01:47:32.049Z,9.63
2018-11-28T01:50:08.067Z,10.47
2018-11-28T01:52:41.605Z,11.23
2018-11-28T01:55:16.158Z,10.73
2018-11-28T01:57:49.787Z,10.67
2018-11-28T02:00:24.556Z,11.43
2018-11-28T02:03:00.237Z,10.17
2018-11-28T02:05:34.014Z,10.47
2018-11-28T02:08:07.494Z,10.43
2018-11-28T02:10:41.032Z,10.00
2018-11-28T02:13:14.427Z,9.40
2018-11-28T02:15:47.864Z,10.40
2018-11-28T02:18:21.430Z,10.17
2018-11-28T02:20:55.082Z,9.17
2018-11-28T02:23:28.625Z,8.87
2018-11-28T02:26:02.077Z,9.07
2018-11-28T02:28:35.671Z,8.90
2018-11-28T02:31:09.075Z,9.77
2018-11-28T02:33:42.710Z,9.80
2018-11-28T02:36:16.073Z,9.13
2018-11-28T02:38:49.801Z,8.70
2018-11-28T02:41:23.195Z,9.03
2018-11-28T02:43:56.650Z,8.87
2018-11-28T02:46:30.789Z,9.03
2018-11-28T02:49:04.330Z,9.87
2018-11-28T02:51:38.015Z,9.30
2018-11-28T02:54:11.725Z,8.50
2018-11-28T02:56:45.375Z,8.77
2018-11-28T02:59:18.854Z,9.03
2018-11-28T03:01:52.495Z,9.03
2018-11-28T03:04:25.925Z,9.67
2018-11-28T03:07:00.324Z,9.63
2018-11-28T03:09:34.242Z,9.40
2018-11-28T03:12:07.674Z,9.43
2018-11-28T03:14:41.198Z,9.47
2018-11-28T03:17:20.657Z,9.97
2018-11-28T03:19:54.312Z,9.27
2018-11-28T03:22:27.917Z,9.40
2018-11-28T03:25:01.560Z,10.20
2018-11-28T03:27:35.214Z,9.80
2018-11-28T03:30:11.529Z,9.33
2018-11-28T03:32:44.942Z,10.97
2018-11-28T03:35:18.371Z,10.63
2018-11-28T03:37:51.869Z,10.43
2018-11-28T03:40:25.531Z,10.30
2018-11-28T03:42:59.044Z,10.77
2018-11-28T03:45:32.667Z,10.90
2018-11-28T03:48:06.304Z,10.67
2018-11-28T03:50:39.884Z,10.40
2018-11-28T03:53:13.519Z,9.80
2018-11-28T03:55:46.932Z,10.80
2018-11-28T03:58:20.361Z,10.70
2018-11-28T04:00:53.845Z,10.20
2018-11-28T04:03:27.298Z,10.87
2018-11-28T04:06:00.932Z,10.67
2018-11-28T04:08:34.466Z,10.73
2018-11-28T04:11:07.952Z,10.67
2018-11-28T04:13:41.492Z,11.07
2018-11-28T04:16:14.933Z,10.70
2018-11-28T04:18:48.562Z,11.50
2018-11-28T04:21:22.107Z,10.93
2018-11-28T04:23:55.594Z,11.07
2018-11-28T04:26:29.114Z,10.93
2018-11-28T04:29:02.794Z,10.80
2018-11-28T04:31:36.312Z,11.03
2018-11-28T04:34:09.874Z,9.93
2018-11-28T04:36:43.392Z,9.87
2018-11-28T04:39:17.055Z,10.50
2018-11-28T04:41:50.560Z,9.93
2018-11-28T04:44:24.114Z,10.60
2018-11-28T04:46:57.674Z,9.90
2018-11-28T04:49:31.799Z,10.03
2018-11-28T04:52:05.661Z,10.50
2018-11-28T04:54:39.279Z,10.60
2018-11-28T04:57:12.857Z,10.07
2018-11-28T04:59:46.422Z,9.83
2018-11-28T05:02:19.874Z,10.10
2018-11-28T05:04:53.414Z,10.33
2018-11-28T05:07:27.834Z,10.67
2018-11-28T05:10:01.483Z,10.30
2018-11-28T05:12:34.901Z,9.77
2018-11-28T05:15:09.669Z,9.77
2018-11-28T05:17:46.249Z,10.33
2018-11-28T05:20:25.601Z,10.53
2018-11-28T05:22:59.100Z,10.60
2018-11-28T05:25:34.106Z,10.50
2018-11-28T05:28:07.852Z,11.13
2018-11-28T05:30:41.294Z,10.87
2018-11-28T05:33:15.005Z,10.27
2018-11-28T05:35:48.446Z,10.13
2018-11-28T05:38:22.046Z,10.23
2018-11-28T05:40:55.500Z,10.97
2018-11-28T05:43:29.203Z,10.93
2018-11-28T05:46:02.603Z,10.30
2018-11-28T05:48:36.269Z,11.27
2018-11-28T05:51:09.798Z,10.60
2018-11-28T05:53:43.394Z,10.80
2018-11-28T05:56:17.151Z,10.50
2018-11-28T05:58:50.573Z,11.40
2018-11-28T06:01:24.158Z,9.97
2018-11-28T06:03:57.490Z,10.37
2018-11-28T06:06:31.104Z,11.40
2018-11-28T06:09:08.278Z,9.50
2018-11-28T06:11:41.877Z,10.17
2018-11-28T06:14:15.543Z,10.53
2018-11-28T06:16:49.208Z,10.57
2018-11-28T06:19:22.727Z,9.33
2018-11-28T06:21:56.366Z,10.67
2018-11-28T06:24:30.241Z,10.23
2018-11-28T06:27:03.742Z,10.00
2018-11-28T06:29:37.310Z,9.33
2018-11-28T06:32:10.716Z,10.33
2018-11-28T06:34:44.379Z,9.30
2018-11-28T06:37:18.770Z,9.40
2018-11-28T06:39:52.249Z,9.60
2018-11-28T06:42:25.952Z,10.13
2018-11-28T06:44:59.476Z,9.30
2018-11-28T06:47:33.157Z,9.57
2018-11-28T06:50:09.697Z,8.63
2018-11-28T06:52:44.524Z,9.53
2018-11-28T06:55:21.656Z,9.67
2018-11-28T06:57:55.585Z,9.33
2018-11-28T07:00:29.318Z,10.17
2018-11-28T07:03:02.720Z,8.73
2018-11-28T07:05:36.214Z,9.23
2018-11-28T07:08:12.509Z,8.87
2018-11-28T07:10:47.016Z,8.87
2018-11-28T07:13:20.454Z,9.30
2018-11-28T07:15:53.903Z,9.13
2018-11-28T07:18:39.266Z,9.17
2018-11-28T07:21:12.805Z,9.37
2018-11-28T07:23:46.478Z,9.03
2018-11-28T07:29:00.039Z,10.90
2018-11-28T07:31:33.571Z,10.10
2018-11-28T07:34:07.122Z,10.10
2018-11-28T07:36:40.777Z,9.00
2018-11-28T07:39:14.360Z,9.70
2018-11-28T07:41:48.135Z,10.43
2018-11-28T07:44:21.874Z,9.47
2018-11-28T07:46:55.677Z,8.80
2018-11-28T07:49:29.305Z,9.50
2018-11-28T07:52:02.735Z,9.80
2018-11-28T07:54:36.337Z,10.63
2018-11-28T07:57:09.938Z,9.67
2018-11-28T07:59:43.574Z,9.57
2018-11-28T08:02:17.590Z,9.33
2018-11-28T08:04:51.052Z,11.27
2018-11-28T08:07:24.494Z,10.00
2018-11-28T08:09:58.046Z,10.67
2018-11-28T08:12:31.624Z,10.87
2018-11-28T08:15:06.423Z,10.63
2018-11-28T08:17:39.975Z,10.63
2018-11-28T08:20:13.460Z,12.60
2018-11-28T08:22:47.055Z,12.43
2018-11-28T08:25:20.619Z,13.13
2018-11-28T08:27:54.107Z,11.23
2018-11-28T08:30:27.748Z,13.20
2018-11-28T08:33:01.291Z,11.17
2018-11-28T08:35:34.745Z,11.03
2018-11-28T08:38:08.422Z,11.20
2018-11-28T08:40:41.841Z,12.40
2018-11-28T08:43:15.243Z,12.70
2018-11-28T08:45:48.944Z,11.20
2018-11-28T08:48:22.341Z,10.70
2018-11-28T08:50:57.249Z,11.97
2018-11-28T08:53:30.965Z,11.00
2018-11-28T08:56:04.979Z,10.57
2018-11-28T08:58:38.525Z,11.83
2018-11-28T09:01:12.251Z,11.30
2018-11-28T09:03:45.949Z,11.27
2018-11-28T09:06:19.403Z,11.83
2018-11-28T09:08:53.131Z,11.43
2018-11-28T09:11:26.478Z,11.77
2018-11-28T09:14:04.555Z,11.80
2018-11-28T09:16:33.550Z,12.77
2018-11-28T09:19:07.227Z,13.53
2018-11-28T09:21:41.877Z,11.87
2018-11-28T09:24:15.748Z,12.77
2018-11-28T09:26:49.449Z,11.73
2018-11-28T09:29:22.889Z,14.37
2018-11-28T09:31:56.573Z,12.90
2018-11-28T09:34:30.103Z,12.27
2018-11-28T09:37:03.688Z,13.10
2018-11-28T09:39:37.293Z,13.50
2018-11-28T09:42:10.806Z,13.70
2018-11-28T09:44:44.269Z,15.07
2018-11-28T09:47:17.814Z,15.30
2018-11-28T09:49:51.409Z,16.20
2018-11-28T09:52:25.086Z,15.30
2018-11-28T09:54:58.619Z,15.93
2018-11-28T09:57:32.285Z,16.37
2018-11-28T10:00:09.792Z,15.37
2018-11-28T10:02:43.257Z,17.93
2018-11-28T10:05:19.933Z,17.40
2018-11-28T10:07:53.429Z,16.93
2018-11-28T10:10:27.029Z,18.07
2018-11-28T10:13:00.527Z,18.00
2018-11-28T10:15:35.786Z,17.80
2018-11-28T10:18:07.667Z,18.70
2018-11-28T10:20:41.049Z,20.37
2018-11-28T10:23:14.622Z,19.40
2018-11-28T10:25:48.165Z,19.77
2018-11-28T10:28:21.766Z,20.47
2018-11-28T10:30:55.165Z,20.70
2018-11-28T10:33:29.122Z,21.23
2018-11-28T10:36:02.926Z,21.10
2018-11-28T10:38:36.536Z,20.07
2018-11-28T10:41:10.267Z,20.90
2018-11-28T10:43:43.769Z,22.33
2018-11-28T10:46:17.302Z,20.30
2018-11-28T10:48:50.791Z,23.93
2018-11-28T10:51:24.394Z,22.37
2018-11-28T10:53:58.129Z,24.00
2018-11-28T10:56:31.736Z,23.47
2018-11-28T10:59:05.381Z,24.13
2018-11-28T11:01:44.860Z,22.17
2018-11-28T11:04:23.177Z,23.20
2018-11-28T11:07:02.554Z,22.80
2018-11-28T11:09:42.005Z,23.77
2018-11-28T11:12:21.121Z,23.83
2018-11-28T11:14:54.946Z,24.13
2018-11-28T11:17:28.502Z,24.77
2018-11-28T11:20:02.201Z,25.73
2018-11-28T11:22:35.870Z,25.73
2018-11-28T11:25:09.560Z,24.20
2018-11-28T11:27:43.022Z,26.10
2018-11-28T11:30:16.740Z,23.20
2018-11-28T11:32:50.325Z,23.80
2018-11-28T11:35:23.850Z,25.70
2018-11-28T11:37:57.628Z,24.23
2018-11-28T11:40:31.040Z,23.37
2018-11-28T11:43:05.263Z,23.40
2018-11-28T11:45:39.715Z,23.63
2018-11-28T11:48:13.072Z,22.87
2018-11-28T11:50:46.314Z,23.77
2018-11-28T11:53:19.940Z,24.57
2018-11-28T11:55:53.864Z,24.13
2018-11-28T11:58:27.518Z,23.70
2018-11-28T12:01:01.076Z,21.90
2018-11-28T12:03:34.754Z,22.63
2018-11-28T12:06:08.225Z,21.47
2018-11-28T12:08:41.852Z,21.57
2018-11-28T12:11:15.672Z,23.57
2018-11-28T12:13:49.046Z,23.10
2018-11-28T12:16:22.725Z,22.93
2018-11-28T12:18:56.226Z,22.97
2018-11-28T12:21:29.878Z,22.70
2018-11-28T12:24:03.556Z,21.97
2018-11-28T12:26:37.158Z,21.40
2018-11-28T12:29:10.723Z,21.57
2018-11-28T12:31:44.407Z,21.43
2018-11-28T12:34:18.063Z,21.27
2018-11-28T12:36:52.585Z,21.67
2018-11-28T12:39:26.306Z,21.37
2018-11-28T12:41:59.925Z,20.07
2018-11-28T12:44:33.759Z,20.90
2018-11-28T12:47:07.431Z,21.67
2018-11-28T12:49:41.302Z,20.63
2018-11-28T12:52:15.010Z,18.87
2018-11-28T12:54:48.401Z,20.00
2018-11-28T12:57:21.902Z,19.83
2018-11-28T13:00:02.576Z,20.63
2018-11-28T13:02:35.975Z,19.47
2018-11-28T13:05:11.018Z,20.13
2018-11-28T13:07:44.589Z,19.17
2018-11-28T13:10:23.442Z,19.80
2018-11-28T13:12:57.034Z,20.13
2018-11-28T13:15:30.678Z,20.03
2018-11-28T13:18:05.420Z,19.30
2018-11-28T13:20:40.197Z,20.77
2018-11-28T13:23:14.242Z,19.53
2018-11-28T13:25:47.962Z,18.83
2018-11-28T13:28:21.757Z,19.07
2018-11-28T13:30:55.173Z,18.20
2018-11-28T13:33:28.894Z,18.90
2018-11-28T13:36:02.553Z,20.57
2018-11-28T13:38:35.906Z,19.07
2018-11-28T13:41:09.390Z,18.97
2018-11-28T13:43:42.888Z,18.93
2018-11-28T13:46:16.721Z,19.40
2018-11-28T13:48:50.312Z,19.57
2018-11-28T13:51:24.011Z,17.40
2018-11-28T13:53:57.513Z,17.97
2018-11-28T13:56:58.157Z,19.50
2018-11-28T13:59:05.063Z,19.67
2018-11-28T14:01:38.588Z,17.63
2018-11-28T14:04:12.181Z,18.27
2018-11-28T14:06:46.345Z,16.90
2018-11-28T14:09:19.829Z,17.67
2018-11-28T14:11:53.397Z,17.13
2018-11-28T14:14:26.917Z,17.47
2018-11-28T14:17:00.537Z,19.10
2018-11-28T14:19:34.034Z,16.80
2018-11-28T14:22:07.533Z,18.43
2018-11-28T14:24:41.306Z,17.43
2018-11-28T14:27:14.869Z,17.40
2018-11-28T14:29:48.435Z,17.20
2018-11-28T14:32:22.042Z,17.77
2018-11-28T14:34:55.802Z,17.80
2018-11-28T14:37:29.446Z,16.43
2018-11-28T14:40:03.947Z,16.07
2018-11-28T14:42:37.343Z,17.50
2018-11-28T14:45:14.197Z,15.80
2018-11-28T14:47:48.612Z,16.40
2018-11-28T14:50:24.265Z,16.97
2018-11-28T14:52:59.141Z,17.03
2018-11-28T14:55:36.194Z,17.97
2018-11-28T14:58:11.291Z,17.33
2018-11-28T15:00:44.904Z,17.10
2018-11-28T15:03:19.430Z,17.53
2018-11-28T15:05:59.785Z,16.07
2018-11-28T15:08:33.145Z,17.33
2018-11-28T15:11:10.320Z,17.67
2018-11-28T15:13:44.032Z,16.53
2018-11-28T15:16:17.550Z,17.30
2018-11-28T15:18:51.337Z,17.53
2018-11-28T15:21:24.835Z,17.27
2018-11-28T15:23:58.469Z,18.67
2018-11-28T15:26:32.103Z,17.27
2018-11-28T15:29:06.017Z,17.07
2018-11-28T15:31:39.780Z,16.87
2018-11-28T15:34:13.346Z,16.83
2018-11-28T15:36:46.816Z,17.40
2018-11-28T15:39:20.415Z,17.80
2018-11-28T15:41:53.872Z,18.40
2018-11-28T15:44:27.320Z,17.00
2018-11-28T15:47:00.665Z,16.63
2018-11-28T15:49:34.264Z,16.33
2018-11-28T15:52:07.832Z,17.33
2018-11-28T15:54:41.361Z,16.63
2018-11-28T15:57:14.832Z,16.73
2018-11-28T15:59:48.398Z,17.33
2018-11-28T16:02:22.030Z,17.87
2018-11-28T16:04:55.696Z,18.53
2018-11-28T16:07:29.208Z,17.67
2018-11-28T16:10:08.314Z,18.53
2018-11-28T16:12:42.583Z,18.70
2018-11-28T16:15:20.610Z,16.30
2018-11-28T16:17:54.085Z,17.53
2018-11-28T16:20:27.688Z,17.27
2018-11-28T16:23:04.126Z,18.93
2018-11-28T16:25:34.634Z,18.00
2018-11-28T16:28:08.619Z,18.33
2018-11-28T16:30:42.085Z,19.80
2018-11-28T16:33:16.525Z,17.73
2018-11-28T16:35:50.418Z,18.70
2018-11-28T16:38:23.954Z,17.33
2018-11-28T16:40:57.666Z,17.17
2018-11-28T16:43:31.133Z,18.53
2018-11-28T16:46:04.922Z,18.60
2018-11-28T16:48:38.539Z,18.57
2018-11-28T16:51:12.030Z,18.37
2018-11-28T16:53:45.553Z,19.20
2018-11-28T16:56:19.175Z,19.73
2018-11-28T16:58:52.680Z,18.17
2018-11-28T17:01:26.355Z,18.37
2018-11-28T17:04:00.182Z,17.93
2018-11-28T17:06:33.816Z,17.73
2018-11-28T17:09:08.613Z,19.00
2018-11-28T17:11:42.090Z,18.70
2018-11-28T17:14:15.589Z,18.07
2018-11-28T17:16:48.951Z,18.00
2018-11-28T17:19:22.451Z,17.77
2018-11-28T17:21:55.867Z,17.77
2018-11-28T17:24:29.395Z,17.97
2018-11-28T17:27:04.072Z,18.27
2018-11-28T17:29:37.574Z,18.37
2018-11-28T17:32:11.003Z,18.23
2018-11-28T17:34:44.501Z,17.83
2018-11-28T17:37:18.172Z,17.67
2018-11-28T17:39:51.598Z,18.87
2018-11-28T17:42:25.080Z,17.80
2018-11-28T17:44:58.525Z,17.77
2018-11-28T17:47:32.163Z,17.03
2018-11-28T17:50:11.249Z,17.50
2018-11-28T17:52:57.733Z,17.73
2018-11-28T17:56:03.492Z,18.20
2018-11-28T17:58:37.085Z,18.20
2018-11-28T18:01:10.553Z,27.03
2018-11-28T18:03:44.224Z,19.27
2018-11-28T18:06:18.010Z,19.17
2018-11-28T18:08:51.594Z,19.83
2018-11-28T18:11:25.129Z,18.47
2018-11-28T18:13:58.614Z,19.37
2018-11-28T18:16:32.194Z,19.90
2018-11-28T18:19:05.704Z,19.80
2018-11-28T18:21:39.103Z,17.70
2018-11-28T18:24:12.864Z,19.30
2018-11-28T18:26:46.305Z,17.90
2018-11-28T18:29:19.787Z,18.50
2018-11-28T18:31:53.255Z,16.87
2018-11-28T18:34:26.795Z,17.47
2018-11-28T18:37:00.493Z,17.47
2018-11-28T18:39:34.099Z,18.53
2018-11-28T18:42:07.678Z,18.57
2018-11-28T18:44:41.187Z,18.20
2018-11-28T18:47:14.855Z,19.30
2018-11-28T18:49:48.398Z,19.37
2018-11-28T18:52:22.752Z,20.33
2018-11-28T18:54:56.278Z,22.33
2018-11-28T18:57:29.849Z,20.73
2018-11-28T19:00:04.263Z,20.10
2018-11-28T19:02:38.170Z,18.83
2018-11-28T19:05:11.769Z,19.00
2018-11-28T19:07:45.495Z,19.10
2018-11-28T19:10:25.994Z,18.53
2018-11-28T19:12:54.424Z,19.50
2018-11-28T19:15:28.362Z,19.73
2018-11-28T19:18:02.060Z,17.90
2018-11-28T19:20:35.563Z,19.20
2018-11-28T19:23:09.033Z,18.63
2018-11-28T19:25:42.403Z,19.57
2018-11-28T19:28:15.754Z,18.83
2018-11-28T19:30:49.378Z,19.70
2018-11-28T19:33:23.029Z,18.47
2018-11-28T19:35:56.427Z,20.03
2018-11-28T19:38:29.770Z,20.07
2018-11-28T19:41:05.652Z,17.73
2018-11-28T19:43:38.940Z,19.60
2018-11-28T19:46:12.468Z,18.17
2018-11-28T19:48:46.143Z,18.43
2018-11-28T19:51:19.695Z,19.37
2018-11-28T19:53:53.450Z,19.23
2018-11-28T19:56:26.914Z,18.03
2018-11-28T19:59:00.605Z,18.10
2018-11-28T20:01:34.146Z,19.03
2018-11-28T20:04:07.535Z,18.77
2018-11-28T20:06:41.000Z,19.27
2018-11-28T20:09:19.042Z,20.30
2018-11-28T20:11:52.525Z,17.70
2018-11-28T20:14:26.187Z,20.57
2018-11-28T20:16:59.737Z,18.53
2018-11-28T20:19:33.307Z,17.87
2018-11-28T20:22:06.976Z,19.37
2018-11-28T20:24:40.545Z,18.07
2018-11-28T20:27:14.121Z,18.37
2018-11-28T20:29:47.880Z,18.87
2018-11-28T20:32:21.442Z,18.40
2018-11-28T20:34:54.978Z,16.80
2018-11-28T20:37:28.589Z,19.53
2018-11-28T20:40:02.463Z,17.67
2018-11-28T20:42:36.022Z,18.80
2018-11-28T20:45:10.445Z,18.80
2018-11-28T20:47:43.902Z,18.87
2018-11-28T20:50:25.294Z,18.93
2018-11-28T20:53:12.034Z,19.83
2018-11-28T20:55:45.683Z,18.33
2018-11-28T20:58:19.296Z,18.90
2018-11-28T21:00:52.781Z,18.03
2018-11-28T21:03:26.387Z,18.63
2018-11-28T21:05:59.902Z,18.50
2018-11-28T21:08:33.667Z,17.63
2018-11-28T21:11:07.883Z,17.73
2018-11-28T21:13:42.002Z,19.37
2018-11-28T21:16:15.707Z,18.43
2018-11-28T21:18:49.401Z,17.73
2018-11-28T21:21:27.452Z,19.77
2018-11-28T21:23:56.908Z,18.70
2018-11-28T21:26:30.756Z,19.73
2018-11-28T21:29:04.921Z,18.60
2018-11-28T21:31:38.895Z,18.80
2018-11-28T21:34:12.849Z,18.50
2018-11-28T21:36:46.358Z,17.77
2018-11-28T21:39:20.085Z,18.63
2018-11-28T21:41:53.744Z,19.10
2018-11-28T21:44:27.510Z,19.27
2018-11-28T21:47:01.165Z,19.93
2018-11-28T21:49:35.210Z,18.63
2018-11-28T21:52:08.847Z,18.97
2018-11-28T21:54:42.294Z,20.57
2018-11-28T21:57:16.530Z,18.87
2018-11-28T21:59:50.413Z,19.40
2018-11-28T22:02:24.443Z,17.40
2018-11-28T22:04:58.143Z,19.20
2018-11-28T22:07:31.666Z,18.73
2018-11-28T22:10:10.401Z,19.53
2018-11-28T22:12:44.041Z,18.80
2018-11-28T22:15:18.030Z,19.13
2018-11-28T22:17:53.735Z,19.23
2018-11-28T22:20:27.291Z,18.67
2018-11-28T22:23:00.895Z,19.33
2018-11-28T22:25:34.407Z,18.77
2018-11-28T22:28:08.001Z,18.27
2018-11-28T22:30:41.706Z,19.10
2018-11-28T22:33:16.089Z,17.83
2018-11-28T22:35:50.814Z,18.07
2018-11-28T22:38:24.519Z,19.27
2018-11-28T22:40:57.899Z,18.83
2018-11-28T22:43:31.522Z,18.67
2018-11-28T22:46:05.323Z,17.60
2018-11-28T22:48:39.950Z,18.90
2018-11-28T22:51:13.370Z,18.57
2018-11-28T22:53:47.168Z,19.27
2018-11-28T22:56:20.653Z,18.57
2018-11-28T22:58:54.235Z,18.23
2018-11-28T23:01:39.182Z,17.93
2018-11-28T23:04:12.619Z,19.00
2018-11-28T23:06:46.219Z,19.50
2018-11-28T23:09:19.801Z,19.00
2018-11-28T23:11:53.278Z,19.37
2018-11-28T23:14:27.019Z,19.53
2018-11-28T23:17:00.721Z,18.87
2018-11-28T23:19:34.431Z,18.33
2018-11-28T23:22:08.124Z,19.13
2018-11-28T23:24:42.067Z,18.33
2018-11-28T23:27:15.414Z,18.27
2018-11-28T23:29:49.031Z,17.50
2018-11-28T23:32:22.653Z,19.77
2018-11-28T23:34:56.194Z,17.80
2018-11-28T23:37:29.717Z,18.33
2018-11-28T23:40:05.485Z,17.87
2018-11-28T23:42:39.104Z,18.90
2018-11-28T23:45:13.320Z,19.40
2018-11-28T23:47:47.029Z,18.37
2018-11-28T23:50:25.262Z,19.40
2018-11-28T23:52:58.757Z,18.57
2018-11-28T23:55:32.519Z,18.50
2018-11-28T23:58:05.999Z,20.03
